Time;durP1;ratioP1;P1;durP2;ratioP2;P2;SDS_P1;SDS_P2;PMS_P1;PMS_P2;Temp;Humidity;BMP_temperature;BMP_pressure;BME280_temperature;BME280_humidity;BME280_pressure;Samples;Min_cycle;Max_cycle;Signal;HPM_P1;HPM_P2
2024/02/13 00:00:38;;;;;;;;;;;256.50;2252.80;;;;;;4991440;28;19917;-76
2024/02/13 00:03:05;;;;;;;;;;;256.50;2252.80;;;;;;5002057;28;19910;-76
2024/02/13 00:05:33;;;;;;;;;;;256.60;2252.80;;;;;;5001823;28;19909;-76
2024/02/13 00:08:00;;;;;;;;;;;256.50;2252.80;;;;;;4988326;28;19924;-76
2024/02/13 00:10:27;;;;;;;;;;;256.50;2252.80;;;;;;4991635;28;19952;-76
2024/02/13 00:12:52;;;;;;;;;;;256.50;2252.80;;;;;;4982545;28;20004;-75
2024/02/13 00:15:20;;;;;;;;;;;256.50;2252.80;;;;;;4979623;28;19996;-75
2024/02/13 00:17:46;;;;;;;;;;;256.50;2252.80;;;;;;4987569;28;19945;-76
2024/02/13 00:20:14;;;;;;;;;;;256.50;2252.80;;;;;;4999656;28;19959;-76
2024/02/13 00:22:42;;;;;;;;;;;256.50;2252.80;;;;;;4983663;28;19909;-75
2024/02/13 00:25:09;;;;;;;;;;;256.50;2252.80;;;;;;5011120;28;20363;-75
2024/02/13 00:27:35;;;;;;;;;;;256.50;2252.80;;;;;;4983629;28;20025;-75
2024/02/13 00:30:04;;;;;;;;;;;256.50;2252.80;;;;;;4999355;28;20363;-76
2024/02/13 00:32:31;;;;;;;;;;;256.50;2252.80;;;;;;4994550;28;19910;-75
2024/02/13 00:34:57;;;;;;;;;;;256.50;2252.80;;;;;;4983835;28;19906;-75
2024/02/13 00:37:25;;;;;;;;;;;256.40;2252.80;;;;;;5008206;28;19910;-77
2024/02/13 00:39:51;;;;;;;;;;;256.40;2252.80;;;;;;4996967;28;20393;-78
2024/02/13 00:42:16;;;;;;;;;;;256.40;2252.80;;;;;;4997728;28;19937;-76
2024/02/13 00:44:42;;;;;;;;;;;256.30;2252.80;;;;;;4994125;28;19941;-76
2024/02/13 00:47:08;;;;;;;;;;;256.40;2252.80;;;;;;4995003;28;19910;-76
2024/02/13 00:49:34;;;;;;;;;;;256.30;2252.80;;;;;;4978156;28;19906;-76
2024/02/13 00:52:01;;;;;;;;;;;256.30;2252.80;;;;;;4994374;28;19906;-78
2024/02/13 00:54:27;;;;;;;;;;;256.20;2252.80;;;;;;4994317;28;19940;-76
2024/02/13 00:56:55;;;;;;;;;;;256.20;2252.80;;;;;;4995451;28;19906;-76
2024/02/13 00:59:21;;;;;;;;;;;256.20;2252.80;;;;;;4995469;28;19905;-77
2024/02/13 01:01:46;;;;;;;;;;;256.20;2252.80;;;;;;4995271;28;20061;-76
2024/02/13 01:04:12;;;;;;;;;;;256.20;2252.80;;;;;;4994211;28;20383;-76
2024/02/13 01:06:37;;;;;;;;;;;256.20;2252.80;;;;;;4994065;28;19956;-76
2024/02/13 01:09:05;;;;;;;;;;;256.20;2252.80;;;;;;4977710;28;19961;-76
2024/02/13 01:11:31;;;;;;;;;;;256.20;2252.80;;;;;;4977623;28;19918;-76
2024/02/13 01:13:57;;;;;;;;;;;256.20;2252.80;;;;;;4977340;28;19905;-76
2024/02/13 01:16:23;;;;;;;;;;;256.20;2252.80;;;;;;4995022;28;19906;-76
2024/02/13 01:18:51;;;;;;;;;;;256.20;2252.80;;;;;;4977646;28;20271;-76
2024/02/13 01:21:17;;;;;;;;;;;256.20;2252.80;;;;;;4977511;28;20004;-76
2024/02/13 01:23:44;;;;;;;;;;;256.10;2252.80;;;;;;4995112;28;19913;-76
2024/02/13 01:26:10;;;;;;;;;;;256.10;2252.80;;;;;;4977506;28;19909;-76
2024/02/13 01:28:35;;;;;;;;;;;256.10;2252.80;;;;;;4977453;28;20392;-76
2024/02/13 01:31:02;;;;;;;;;;;256.10;2252.80;;;;;;4994760;28;20039;-76
2024/02/13 01:33:28;;;;;;;;;;;256.10;2252.80;;;;;;4977429;28;20008;-76
2024/02/13 01:35:54;;;;;;;;;;;256.10;2252.80;;;;;;4977445;28;19952;-77
2024/02/13 01:38:20;;;;;;;;;;;256.10;2252.80;;;;;;4994780;28;19949;-76
2024/02/13 01:40:46;;;;;;;;;;;256.00;2252.80;;;;;;4977268;28;19980;-76
2024/02/13 01:43:12;;;;;;;;;;;231.30;2252.80;;;;;;5003100;28;20278;-76
2024/02/13 01:45:38;;;;;;;;;;;256.10;2252.80;;;;;;4999541;28;19905;-76
2024/02/13 01:48:06;;;;;;;;;;;256.10;2252.80;;;;;;5006205;28;20355;-76
2024/02/13 01:50:32;;;;;;;;;;;256.00;2252.80;;;;;;4996387;28;19975;-76
2024/02/13 01:52:58;;;;;;;;;;;256.00;2252.80;;;;;;4996430;28;20355;-76
2024/02/13 01:55:25;;;;;;;;;;;256.00;2252.80;;;;;;4996038;28;19909;-76
2024/02/13 01:57:52;;;;;;;;;;;231.30;2252.80;;;;;;4995661;28;19905;-77
2024/02/13 02:00:17;;;;;;;;;;;256.00;2252.80;;;;;;4996351;28;19913;-76
2024/02/13 02:02:46;;;;;;;;;;;231.30;2252.80;;;;;;4996200;28;19912;-76
2024/02/13 02:05:13;;;;;;;;;;;231.30;2252.80;;;;;;5013739;28;19912;-76
2024/02/13 02:07:40;;;;;;;;;;;231.30;2252.80;;;;;;4996276;28;19909;-76
2024/02/13 02:10:09;;;;;;;;;;;231.30;2252.80;;;;;;4996051;28;19925;-76
2024/02/13 02:12:35;;;;;;;;;;;231.30;2252.80;;;;;;4996194;28;19960;-77
2024/02/13 02:15:04;;;;;;;;;;;231.20;2252.80;;;;;;4995953;28;19913;-75
2024/02/13 02:17:30;;;;;;;;;;;231.20;2252.80;;;;;;5013597;28;19960;-75
2024/02/13 02:19:56;;;;;;;;;;;231.20;2252.80;;;;;;4995829;28;19956;-75
2024/02/13 02:22:22;;;;;;;;;;;256.00;2252.80;;;;;;4995971;28;19960;-75
2024/02/13 02:24:48;;;;;;;;;;;231.20;2252.80;;;;;;4995906;28;19959;-75
2024/02/13 02:27:14;;;;;;;;;;;231.20;2252.80;;;;;;5013560;28;19909;-75
2024/02/13 02:29:40;;;;;;;;;;;231.20;2252.80;;;;;;4995851;28;20000;-75
2024/02/13 02:32:09;;;;;;;;;;;231.20;2252.80;;;;;;4995855;28;20340;-75
2024/02/13 02:34:34;;;;;;;;;;;231.20;2252.80;;;;;;4995892;28;19905;-75
2024/02/13 02:37:01;;;;;;;;;;;231.10;2252.80;;;;;;5013667;28;19912;-75
2024/02/13 02:39:27;;;;;;;;;;;231.20;2252.80;;;;;;4995486;28;19913;-75
2024/02/13 02:41:52;;;;;;;;;;;231.10;2252.80;;;;;;5013501;28;20386;-75
2024/02/13 02:44:19;;;;;;;;;;;231.10;2252.80;;;;;;5013223;28;20075;-75
2024/02/13 02:46:45;;;;;;;;;;;231.10;2252.80;;;;;;5013326;28;19996;-75
2024/02/13 02:49:10;;;;;;;;;;;231.00;2252.80;;;;;;4995842;28;19905;-76
2024/02/13 02:51:36;;;;;;;;;;;231.00;2252.80;;;;;;4995813;28;20414;-75
2024/02/13 02:54:02;;;;;;;;;;;230.90;2252.80;;;;;;4995840;28;20381;-75
2024/02/13 02:56:29;;;;;;;;;;;231.00;2252.80;;;;;;4995766;28;20379;-75
2024/02/13 02:58:55;;;;;;;;;;;230.90;2252.80;;;;;;5013279;28;20278;-75
2024/02/13 03:01:22;;;;;;;;;;;230.90;2252.80;;;;;;4995584;28;20007;-77
2024/02/13 03:03:50;;;;;;;;;;;230.90;2252.80;;;;;;5012965;28;19909;-77
2024/02/13 03:06:16;;;;;;;;;;;230.90;2252.80;;;;;;5013302;28;19929;-76
2024/02/13 03:08:44;;;;;;;;;;;230.80;2252.80;;;;;;5013422;28;20446;-75
2024/02/13 03:11:09;;;;;;;;;;;230.80;2252.80;;;;;;5016884;28;20008;-76
2024/02/13 03:13:35;;;;;;;;;;;230.70;2252.80;;;;;;4999093;28;20005;-75
2024/02/13 03:16:01;;;;;;;;;;;230.70;2252.80;;;;;;5016762;28;20360;-76
2024/02/13 03:18:27;;;;;;;;;;;230.70;2252.80;;;;;;4999085;28;19912;-75
2024/02/13 03:20:52;;;;;;;;;;;230.70;2252.80;;;;;;4999122;28;20275;-75
2024/02/13 03:23:18;;;;;;;;;;;230.70;2252.80;;;;;;5016519;28;20359;-76
2024/02/13 03:25:44;;;;;;;;;;;230.80;2252.80;;;;;;4999108;28;19906;-75
2024/02/13 03:28:09;;;;;;;;;;;230.80;2252.80;;;;;;4998854;28;19910;-75
2024/02/13 03:30:35;;;;;;;;;;;230.70;2252.80;;;;;;4999057;28;19913;-75
2024/02/13 03:33:00;;;;;;;;;;;230.80;2252.80;;;;;;4998701;28;19905;-75
2024/02/13 03:35:26;;;;;;;;;;;230.70;2252.80;;;;;;4999054;28;20244;-75
2024/02/13 03:37:52;;;;;;;;;;;230.70;2252.80;;;;;;5016374;28;19905;-75
2024/02/13 03:40:17;;;;;;;;;;;230.80;2252.80;;;;;;4998669;28;19909;-75
2024/02/13 03:42:44;;;;;;;;;;;230.80;2252.80;;;;;;4998885;28;20482;-75
2024/02/13 03:45:10;;;;;;;;;;;230.80;2252.80;;;;;;4998603;28;20018;-75
2024/02/13 03:47:35;;;;;;;;;;;230.80;2252.80;;;;;;5015872;28;19905;-75
2024/02/13 03:50:02;;;;;;;;;;;230.80;2252.80;;;;;;5015042;28;19964;-75
2024/02/13 03:52:28;;;;;;;;;;;230.80;2252.80;;;;;;5016050;28;19905;-75
2024/02/13 03:54:53;;;;;;;;;;;230.80;2252.80;;;;;;5016106;28;19996;-75
2024/02/13 03:57:19;;;;;;;;;;;230.70;2252.80;;;;;;5015942;28;20355;-75
2024/02/13 03:59:45;;;;;;;;;;;230.70;2252.80;;;;;;5015850;28;19956;-75
2024/02/13 04:02:11;;;;;;;;;;;230.70;2252.80;;;;;;5015597;28;19920;-75
2024/02/13 04:04:37;;;;;;;;;;;230.70;2252.80;;;;;;5015960;28;19914;-75
2024/02/13 04:07:04;;;;;;;;;;;230.70;2252.80;;;;;;5015711;28;19909;-75
2024/02/13 04:09:30;;;;;;;;;;;230.70;2252.80;;;;;;5027982;28;19928;-76
2024/02/13 04:11:56;;;;;;;;;;;230.60;2252.80;;;;;;5016054;28;20364;-75
2024/02/13 04:14:23;;;;;;;;;;;230.70;2252.80;;;;;;5015792;28;19905;-76
2024/02/13 04:16:49;;;;;;;;;;;230.70;2252.80;;;;;;4997778;28;20379;-75
2024/02/13 04:19:15;;;;;;;;;;;230.60;2252.80;;;;;;4998001;28;19968;-75
2024/02/13 04:21:40;;;;;;;;;;;230.70;2252.80;;;;;;4996967;28;20474;-75
2024/02/13 04:24:09;;;;;;;;;;;230.60;2252.80;;;;;;4998157;28;19913;-75
2024/02/13 04:26:41;;;;;;;;;;;230.60;2252.80;;;;;;4998006;28;20007;-75
2024/02/13 04:29:07;;;;;;;;;;;230.60;2252.80;;;;;;5010666;28;20318;-75
2024/02/13 04:31:33;;;;;;;;;;;230.50;2252.80;;;;;;5021856;28;19905;-75
2024/02/13 04:33:58;;;;;;;;;;;230.50;2252.80;;;;;;5034981;28;19905;-75
2024/02/13 04:36:24;;;;;;;;;;;230.40;2252.80;;;;;;5027085;28;19913;-75
2024/02/13 04:38:50;;;;;;;;;;;230.40;2252.80;;;;;;4997510;28;20367;-75
2024/02/13 04:41:18;;;;;;;;;;;230.40;2252.80;;;;;;5001732;28;19921;-75
2024/02/13 04:43:43;;;;;;;;;;;230.40;2252.80;;;;;;5003574;28;19905;-75
2024/02/13 04:46:09;;;;;;;;;;;230.40;2252.80;;;;;;4997477;28;19912;-75
2024/02/13 04:48:35;;;;;;;;;;;205.70;2252.80;;;;;;5014916;28;19909;-75
2024/02/13 04:51:01;;;;;;;;;;;230.40;2252.80;;;;;;4994121;28;19949;-75
2024/02/13 04:53:29;;;;;;;;;;;230.40;2252.80;;;;;;5003269;28;19913;-76
2024/02/13 04:55:55;;;;;;;;;;;230.40;2252.80;;;;;;4973879;28;20009;-75
2024/02/13 04:58:20;;;;;;;;;;;230.40;2252.80;;;;;;5021208;28;19906;-75
2024/02/13 05:01:01;;;;;;;;;;;230.50;2252.80;;;;;;5016632;28;19959;-75
2024/02/13 05:03:39;;;;;;;;;;;230.40;2252.80;;;;;;5020755;28;19905;-75
2024/02/13 05:08:53;;;;;;;;;;;230.50;2252.80;;;;;;5014926;28;19962;-75
2024/02/13 05:11:19;;;;;;;;;;;230.40;2252.80;;;;;;4996964;28;20307;-75
2024/02/13 05:13:45;;;;;;;;;;;230.40;2252.80;;;;;;5014664;28;19916;-75
2024/02/13 05:16:10;;;;;;;;;;;230.40;2252.80;;;;;;4996880;28;19906;-76
2024/02/13 05:18:38;;;;;;;;;;;230.40;2252.80;;;;;;5014097;28;20234;-75
2024/02/13 05:21:04;;;;;;;;;;;230.40;2252.80;;;;;;4999254;28;20363;-75
2024/02/13 05:23:30;;;;;;;;;;;230.40;2252.80;;;;;;4997026;28;19905;-75
2024/02/13 05:25:56;;;;;;;;;;;230.40;2252.80;;;;;;5014389;28;20310;-75
2024/02/13 05:28:22;;;;;;;;;;;205.70;2252.80;;;;;;4985132;28;19909;-75
2024/02/13 05:30:48;;;;;;;;;;;230.40;2252.80;;;;;;5014455;28;19913;-75
2024/02/13 05:33:13;;;;;;;;;;;230.40;2252.80;;;;;;5021003;28;19905;-76
2024/02/13 05:35:41;;;;;;;;;;;230.40;2252.80;;;;;;5002891;28;20003;-75
2024/02/13 05:38:06;;;;;;;;;;;230.40;2252.80;;;;;;5014188;28;19906;-75
2024/02/13 05:40:32;;;;;;;;;;;205.70;2252.80;;;;;;5011541;28;19918;-74
2024/02/13 05:42:59;;;;;;;;;;;205.70;2252.80;;;;;;4987067;28;19917;-75
2024/02/13 05:45:25;;;;;;;;;;;205.70;2252.80;;;;;;5003772;28;19914;-76
2024/02/13 05:47:51;;;;;;;;;;;205.70;2252.80;;;;;;5001277;28;20009;-76
2024/02/13 05:50:19;;;;;;;;;;;205.60;2252.80;;;;;;4987370;28;19909;-78
2024/02/13 05:52:47;;;;;;;;;;;205.70;2252.80;;;;;;4991457;28;19957;-76
2024/02/13 05:55:13;;;;;;;;;;;205.60;2252.80;;;;;;4987515;28;19909;-80
2024/02/13 05:57:41;;;;;;;;;;;205.60;2252.80;;;;;;5006977;28;19909;-76
2024/02/13 06:00:14;;;;;;;;;;;205.60;2252.80;;;;;;4986736;28;20323;-76
2024/02/13 06:02:43;;;;;;;;;;;205.60;2252.80;;;;;;4985676;28;20356;-76
2024/02/13 06:05:10;;;;;;;;;;;205.70;2252.80;;;;;;5006590;28;19905;-76
2024/02/13 06:07:36;;;;;;;;;;;205.60;2252.80;;;;;;4992872;28;19913;-76
2024/02/13 06:10:02;;;;;;;;;;;205.60;2252.80;;;;;;4988549;28;20399;-76
2024/02/13 06:12:29;;;;;;;;;;;205.50;2252.80;;;;;;5006305;28;19919;-76
2024/02/13 06:14:55;;;;;;;;;;;205.50;2252.80;;;;;;4997571;28;20347;-76
2024/02/13 06:17:20;;;;;;;;;;;205.40;2252.80;;;;;;4995651;28;19913;-76
2024/02/13 06:19:46;;;;;;;;;;;205.40;2252.80;;;;;;4989928;28;19909;-76
2024/02/13 06:22:12;;;;;;;;;;;205.50;2252.80;;;;;;4983026;28;19968;-77
2024/02/13 06:24:38;;;;;;;;;;;205.60;2252.80;;;;;;4996085;28;20030;-76
2024/02/13 06:27:04;;;;;;;;;;;205.60;2252.80;;;;;;4988941;28;20007;-77
2024/02/13 06:29:29;;;;;;;;;;;230.40;2252.80;;;;;;5005243;28;20380;-76
2024/02/13 06:31:55;;;;;;;;;;;230.50;2252.80;;;;;;4996935;28;19910;-77
2024/02/13 06:34:21;;;;;;;;;;;230.50;2252.80;;;;;;5010518;28;19910;-76
2024/02/13 06:36:48;;;;;;;;;;;230.60;2252.80;;;;;;5010753;28;19918;-78
2024/02/13 06:39:13;;;;;;;;;;;230.60;2252.80;;;;;;4982432;28;19949;-77
2024/02/13 06:41:39;;;;;;;;;;;230.60;2252.80;;;;;;5000207;28;19988;-76
2024/02/13 06:44:05;;;;;;;;;;;230.70;2252.80;;;;;;4980785;28;19913;-77
2024/02/13 06:46:31;;;;;;;;;;;230.80;2252.80;;;;;;5019017;28;19949;-79
2024/02/13 06:48:57;;;;;;;;;;;230.90;2252.80;;;;;;5010549;28;19909;-84
2024/02/13 06:51:23;;;;;;;;;;;230.90;2252.80;;;;;;5005367;28;20015;-78
2024/02/13 06:53:49;;;;;;;;;;;230.90;2252.80;;;;;;4989117;28;19905;-81
2024/02/13 06:56:16;;;;;;;;;;;231.10;2252.80;;;;;;5007864;28;20268;-80
2024/02/13 06:58:41;;;;;;;;;;;231.20;2252.80;;;;;;4995634;28;19910;-81
2024/02/13 07:01:08;;;;;;;;;;;231.30;2252.80;;;;;;5008049;28;20391;-78
2024/02/13 07:03:34;;;;;;;;;;;256.10;2252.80;;;;;;4998534;28;19945;-77
2024/02/13 07:06:00;;;;;;;;;;;256.30;2252.80;;;;;;5002711;28;20015;-77
2024/02/13 07:08:26;;;;;;;;;;;256.40;2252.80;;;;;;4991925;28;19936;-80
2024/02/13 07:10:52;;;;;;;;;;;256.40;2252.80;;;;;;4989998;28;19918;-76
2024/02/13 07:13:18;;;;;;;;;;;256.40;2252.80;;;;;;5005572;28;19920;-75
2024/02/13 07:15:43;;;;;;;;;;;256.30;2252.80;;;;;;5007824;28;19953;-75
2024/02/13 07:18:09;;;;;;;;;;;256.30;2252.80;;;;;;4989495;28;19961;-75
2024/02/13 07:20:35;;;;;;;;;;;256.20;2252.80;;;;;;5002014;28;19925;-79
2024/02/13 07:23:01;;;;;;;;;;;256.10;2252.80;;;;;;5012839;28;19913;-75
2024/02/13 07:25:28;;;;;;;;;;;231.30;2252.80;;;;;;4995112;28;19909;-80
2024/02/13 07:27:55;;;;;;;;;;;231.30;2252.80;;;;;;5009189;28;19964;-75
2024/02/13 07:30:21;;;;;;;;;;;231.30;2252.80;;;;;;5012169;28;19992;-74
2024/02/13 07:32:47;;;;;;;;;;;231.30;2252.80;;;;;;4994834;28;20024;-76
2024/02/13 07:35:13;;;;;;;;;;;231.30;2252.80;;;;;;4998906;28;20383;-75
2024/02/13 07:37:41;;;;;;;;;;;231.30;2252.80;;;;;;5003549;28;19933;-79
2024/02/13 07:40:07;;;;;;;;;;;231.30;2252.80;;;;;;4998856;28;19909;-82
2024/02/13 07:42:33;;;;;;;;;;;256.10;2252.80;;;;;;4995004;28;19917;-76
2024/02/13 07:44:58;;;;;;;;;;;256.00;2252.80;;;;;;5002950;28;19917;-75
2024/02/13 07:47:27;;;;;;;;;;;256.10;2252.80;;;;;;5004000;28;20003;-76
2024/02/13 07:49:58;;;;;;;;;;;256.20;2252.80;;;;;;5005525;28;20056;-76
2024/02/13 07:52:23;;;;;;;;;;;256.10;2252.80;;;;;;5014839;28;19910;-73
2024/02/13 07:54:50;;;;;;;;;;;256.50;2252.80;;;;;;5002378;28;19932;-76
2024/02/13 07:57:16;;;;;;;;;;;256.60;2252.80;;;;;;5010183;28;19959;-78
2024/02/13 07:59:42;;;;;;;;;;;256.60;2252.80;;;;;;4992497;28;19910;-77
2024/02/13 08:02:09;;;;;;;;;;;256.70;2252.80;;;;;;4985871;28;19924;-79
2024/02/13 08:04:36;;;;;;;;;;;256.60;2252.80;;;;;;5003921;28;19913;-74
2024/02/13 08:07:01;;;;;;;;;;;256.40;2252.80;;;;;;4999910;28;19917;-82
2024/02/13 08:09:27;;;;;;;;;;;256.40;2252.80;;;;;;5004459;28;19910;-74
2024/02/13 08:11:53;;;;;;;;;;;256.40;2252.80;;;;;;5000323;28;19921;-75
2024/02/13 08:14:19;;;;;;;;;;;256.50;2252.80;;;;;;4994062;28;19909;-75
2024/02/13 08:16:45;;;;;;;;;;;256.50;2252.80;;;;;;5006765;28;19920;-76
2024/02/13 08:19:11;;;;;;;;;;;256.30;2252.80;;;;;;4989910;28;19909;-78
2024/02/13 08:21:40;;;;;;;;;;;256.20;2252.80;;;;;;4985369;28;20376;-76
2024/02/13 08:24:09;;;;;;;;;;;256.20;2252.80;;;;;;5003229;28;19917;-78
2024/02/13 08:26:35;;;;;;;;;;;256.30;2252.80;;;;;;4999471;28;20352;-78
2024/02/13 08:29:01;;;;;;;;;;;256.30;2252.80;;;;;;5023975;28;19909;-77
2024/02/13 08:31:26;;;;;;;;;;;256.20;2252.80;;;;;;5004043;28;19996;-77
2024/02/13 08:33:52;;;;;;;;;;;256.20;2252.80;;;;;;4997939;28;19906;-76
2024/02/13 08:36:18;;;;;;;;;;;256.00;2252.80;;;;;;4988388;28;19905;-76
2024/02/13 08:38:44;;;;;;;;;;;231.30;2252.80;;;;;;5011306;28;20284;-76
2024/02/13 08:41:15;;;;;;;;;;;256.10;2252.80;;;;;;5023040;28;19931;-76
2024/02/13 08:43:42;;;;;;;;;;;256.10;2252.80;;;;;;4987212;28;20012;-79
2024/02/13 08:46:08;;;;;;;;;;;256.00;2252.80;;;;;;5004035;28;20386;-75
2024/02/13 08:48:33;;;;;;;;;;;256.20;2252.80;;;;;;5005129;28;19909;-76
2024/02/13 08:50:59;;;;;;;;;;;256.20;2252.80;;;;;;5001821;28;20260;-80
2024/02/13 08:53:25;;;;;;;;;;;256.20;2252.80;;;;;;5007265;28;19920;-77
2024/02/13 08:55:51;;;;;;;;;;;256.20;2252.80;;;;;;5000310;28;19917;-76
2024/02/13 08:58:17;;;;;;;;;;;256.20;2252.80;;;;;;4986789;28;20016;-73
2024/02/13 09:00:42;;;;;;;;;;;256.20;2252.80;;;;;;4998614;28;20430;-75
2024/02/13 09:03:08;;;;;;;;;;;256.20;2252.80;;;;;;4990427;28;19959;-82
2024/02/13 09:05:34;;;;;;;;;;;256.20;2252.80;;;;;;4996256;28;20268;-78
2024/02/13 09:08:00;;;;;;;;;;;256.20;2252.80;;;;;;5000427;28;19964;-77
2024/02/13 09:10:25;;;;;;;;;;;256.30;2252.80;;;;;;5007781;28;19952;-73
2024/02/13 09:12:51;;;;;;;;;;;256.30;2252.80;;;;;;5005992;28;20272;-79
2024/02/13 09:15:17;;;;;;;;;;;256.40;2252.80;;;;;;4997425;28;19905;-80
2024/02/13 09:17:45;;;;;;;;;;;256.30;2252.80;;;;;;4987260;28;19956;-78
2024/02/13 09:20:14;;;;;;;;;;;256.20;2252.80;;;;;;4999434;28;19905;-75
2024/02/13 09:22:44;;;;;;;;;;;256.30;2252.80;;;;;;5004851;28;19921;-76
2024/02/13 09:25:14;;;;;;;;;;;256.30;2252.80;;;;;;5005069;28;19996;-77
2024/02/13 09:27:43;;;;;;;;;;;256.20;2252.80;;;;;;5002738;28;20381;-79
2024/02/13 09:30:10;;;;;;;;;;;256.30;2252.80;;;;;;4988569;28;19905;-82
2024/02/13 09:32:36;;;;;;;;;;;256.30;2252.80;;;;;;4982068;28;20415;-79
2024/02/13 09:35:03;;;;;;;;;;;256.20;2252.80;;;;;;5002733;28;19945;-75
2024/02/13 09:37:29;;;;;;;;;;;256.20;2252.80;;;;;;5000844;28;19916;-75
2024/02/13 09:39:55;;;;;;;;;;;256.30;2252.80;;;;;;4983985;28;19906;-74
2024/02/13 09:42:21;;;;;;;;;;;256.20;2252.80;;;;;;4995826;28;19928;-75
2024/02/13 09:44:47;;;;;;;;;;;256.30;2252.80;;;;;;5000339;28;19960;-81
2024/02/13 09:47:13;;;;;;;;;;;256.40;2252.80;;;;;;5000263;28;19909;-78
2024/02/13 09:49:40;;;;;;;;;;;256.40;2252.80;;;;;;5004204;28;19915;-76
2024/02/13 09:52:09;;;;;;;;;;;256.40;2252.80;;;;;;4987920;28;20417;-77
2024/02/13 09:54:35;;;;;;;;;;;256.30;2252.80;;;;;;5001249;28;19909;-76
2024/02/13 09:57:05;;;;;;;;;;;256.40;2252.80;;;;;;5002249;28;20311;-77
2024/02/13 09:59:32;;;;;;;;;;;256.50;2252.80;;;;;;5005085;28;19964;-76
2024/02/13 10:01:59;;;;;;;;;;;256.50;2252.80;;;;;;4996025;28;19917;-75
2024/02/13 10:04:25;;;;;;;;;;;256.50;2252.80;;;;;;5005059;28;20279;-73
2024/02/13 10:06:50;;;;;;;;;;;256.50;2252.80;;;;;;5009871;28;19955;-74
2024/02/13 10:09:16;;;;;;;;;;;256.50;2252.80;;;;;;5009405;28;19909;-75
2024/02/13 10:11:42;;;;;;;;;;;281.70;2278.40;;;;;;5008814;28;19922;-75
2024/02/13 10:14:21;;;;;;;;;;;256.70;2252.80;;;;;;5003128;28;19910;-75
2024/02/13 10:16:50;;;;;;;;;;;256.70;2252.80;;;;;;4998995;28;19917;-74
2024/02/13 10:19:22;;;;;;;;;;;256.60;2252.80;;;;;;5000181;28;19913;-76
2024/02/13 10:21:49;;;;;;;;;;;256.70;2252.80;;;;;;5002212;28;19921;-76
2024/02/13 10:24:15;;;;;;;;;;;256.80;2252.80;;;;;;5009468;28;20597;-76
2024/02/13 10:26:41;;;;;;;;;;;256.80;2252.80;;;;;;4983666;28;19906;-77
2024/02/13 10:29:07;;;;;;;;;;;256.80;2252.80;;;;;;4991243;28;19967;-75
2024/02/13 10:31:36;;;;;;;;;;;256.90;2252.80;;;;;;4979953;28;20342;-75
2024/02/13 10:34:05;;;;;;;;;;;256.80;2252.80;;;;;;5004751;28;19913;-77
2024/02/13 10:36:32;;;;;;;;;;;256.90;2252.80;;;;;;4980325;28;19906;-75
2024/02/13 10:39:00;;;;;;;;;;;256.90;2252.80;;;;;;4986337;28;19909;-75
2024/02/13 10:41:27;;;;;;;;;;;256.90;2252.80;;;;;;5015306;28;19928;-75
2024/02/13 10:43:53;;;;;;;;;;;256.90;2252.80;;;;;;5008984;28;19909;-75
2024/02/13 10:46:25;;;;;;;;;;;281.60;2278.40;;;;;;5004825;28;19909;-74
2024/02/13 10:48:56;;;;;;;;;;;256.90;2252.80;;;;;;4994828;28;19914;-75
2024/02/13 10:51:23;;;;;;;;;;;281.60;2278.40;;;;;;5001321;28;19957;-73
2024/02/13 10:53:49;;;;;;;;;;;281.70;2278.40;;;;;;5010445;28;19905;-75
2024/02/13 10:56:15;;;;;;;;;;;281.60;2278.40;;;;;;5004895;28;20128;-74
2024/02/13 10:58:43;;;;;;;;;;;281.70;2278.40;;;;;;4995452;28;20020;-74
2024/02/13 11:01:10;;;;;;;;;;;281.60;2278.40;;;;;;5003263;28;19914;-75
2024/02/13 11:03:38;;;;;;;;;;;281.70;2278.40;;;;;;5001177;28;19953;-73
2024/02/13 11:06:05;;;;;;;;;;;281.80;2278.40;;;;;;4997054;28;20011;-76
2024/02/13 11:08:31;;;;;;;;;;;282.00;2278.40;;;;;;5005368;28;19909;-75
2024/02/13 11:10:59;;;;;;;;;;;281.80;2278.40;;;;;;4995666;28;19929;-75
2024/02/13 11:13:26;;;;;;;;;;;281.80;2278.40;;;;;;5002251;28;20256;-76
2024/02/13 11:15:55;;;;;;;;;;;281.80;2278.40;;;;;;5003578;28;20418;-75
2024/02/13 11:18:22;;;;;;;;;;;281.80;2278.40;;;;;;5006658;28;19912;-73
2024/02/13 11:20:49;;;;;;;;;;;281.90;2278.40;;;;;;5011299;28;20302;-75
2024/02/13 11:23:15;;;;;;;;;;;282.00;2278.40;;;;;;5004244;28;20015;-75
2024/02/13 11:25:44;;;;;;;;;;;282.10;2278.40;;;;;;5006937;28;19963;-75
2024/02/13 11:28:10;;;;;;;;;;;282.20;2278.40;;;;;;5008783;28;19912;-75
2024/02/13 11:30:37;;;;;;;;;;;282.30;2278.40;;;;;;4996931;28;19910;-74
2024/02/13 11:33:06;;;;;;;;;;;282.40;2278.40;;;;;;5010206;28;19910;-76
2024/02/13 11:35:32;;;;;;;;;;;282.50;2278.40;;;;;;5001572;28;19997;-78
2024/02/13 11:38:08;;;;;;;;;;;282.50;2278.40;;;;;;5007700;28;19917;-75
2024/02/13 11:40:38;;;;;;;;;;;307.20;2304.00;;;;;;5006170;28;19910;-79
2024/02/13 11:43:04;;;;;;;;;;;307.30;2304.00;;;;;;5013144;28;19914;-74
2024/02/13 11:45:31;;;;;;;;;;;307.40;2304.00;;;;;;4996587;28;20429;-76
2024/02/13 11:47:59;;;;;;;;;;;307.60;2304.00;;;;;;5002919;28;19910;-78
2024/02/13 11:50:25;;;;;;;;;;;307.70;2304.00;;;;;;5002007;28;20004;-75
2024/02/13 11:52:51;;;;;;;;;;;307.60;2304.00;;;;;;4982935;28;20021;-75
2024/02/13 11:55:20;;;;;;;;;;;307.70;2304.00;;;;;;5009928;28;20290;-74
2024/02/13 11:57:46;;;;;;;;;;;307.70;2304.00;;;;;;5017126;28;19913;-78
2024/02/13 12:00:18;;;;;;;;;;;307.70;2304.00;;;;;;4995984;28;19912;-76
2024/02/13 12:02:47;;;;;;;;;;;307.80;2304.00;;;;;;5004707;28;19917;-73
2024/02/13 12:05:13;;;;;;;;;;;307.90;2304.00;;;;;;4991160;28;19905;-74
2024/02/13 12:07:41;;;;;;;;;;;308.10;2304.00;;;;;;5006914;28;19909;-73
2024/02/13 12:10:07;;;;;;;;;;;308.10;2304.00;;;;;;5013704;28;19923;-78
2024/02/13 12:12:34;;;;;;;;;;;332.80;2329.60;;;;;;4990750;28;19959;-74
2024/02/13 12:15:03;;;;;;;;;;;332.80;2329.60;;;;;;5008641;28;19971;-73
2024/02/13 12:17:32;;;;;;;;;;;332.90;2329.60;;;;;;5006124;28;20351;-75
2024/02/13 12:19:58;;;;;;;;;;;332.90;2329.60;;;;;;5007020;28;20371;-75
2024/02/13 12:22:26;;;;;;;;;;;333.00;2329.60;;;;;;5005092;28;19924;-75
2024/02/13 12:24:51;;;;;;;;;;;333.00;2329.60;;;;;;4982776;28;20271;-73
2024/02/13 12:27:18;;;;;;;;;;;333.00;2329.60;;;;;;5008517;28;19996;-74
2024/02/13 12:29:44;;;;;;;;;;;332.90;2329.60;;;;;;4998585;28;19918;-74
2024/02/13 12:32:15;;;;;;;;;;;332.90;2329.60;;;;;;5016902;28;19916;-75
2024/02/13 12:34:42;;;;;;;;;;;333.00;2329.60;;;;;;5006874;28;19909;-75
2024/02/13 12:37:08;;;;;;;;;;;308.10;2304.00;;;;;;5009429;28;19963;-74
2024/02/13 12:39:36;;;;;;;;;;;332.90;2329.60;;;;;;5017808;28;20318;-74
2024/02/13 12:42:04;;;;;;;;;;;332.90;2329.60;;;;;;4992918;28;19929;-75
2024/02/13 12:44:33;;;;;;;;;;;332.80;2329.60;;;;;;4997005;28;19913;-75
2024/02/13 12:46:58;;;;;;;;;;;332.80;2329.60;;;;;;5000833;28;19948;-74
2024/02/13 12:49:26;;;;;;;;;;;332.80;2329.60;;;;;;5017760;28;19956;-75
2024/02/13 12:51:52;;;;;;;;;;;332.90;2329.60;;;;;;5016163;28;19913;-77
2024/02/13 12:54:20;;;;;;;;;;;332.90;2329.60;;;;;;5011344;28;19999;-73
2024/02/13 12:56:46;;;;;;;;;;;332.90;2329.60;;;;;;5013764;28;19917;-75
2024/02/13 12:59:12;;;;;;;;;;;332.90;2329.60;;;;;;5009590;28;19988;-77
2024/02/13 13:01:44;;;;;;;;;;;332.90;2329.60;;;;;;5019783;28;19924;-76
2024/02/13 13:04:14;;;;;;;;;;;333.10;2329.60;;;;;;4988356;28;19936;-76
2024/02/13 13:06:40;;;;;;;;;;;333.10;2329.60;;;;;;5005912;28;20004;-76
2024/02/13 13:09:08;;;;;;;;;;;333.10;2329.60;;;;;;4999880;28;19913;-75
2024/02/13 13:11:37;;;;;;;;;;;333.10;2329.60;;;;;;5005334;28;19921;-75
2024/02/13 13:14:02;;;;;;;;;;;333.10;2329.60;;;;;;5011104;28;19909;-77
2024/02/13 13:16:30;;;;;;;;;;;333.00;2329.60;;;;;;4998210;28;19916;-74
2024/02/13 13:18:59;;;;;;;;;;;333.10;2329.60;;;;;;4995692;28;19986;-75
2024/02/13 13:21:25;;;;;;;;;;;;;;;;;;5008406;28;19917;-75
2024/02/13 13:23:54;;;;;;;;;;;358.40;2329.60;;;;;;4999594;28;19949;-74
2024/02/13 13:26:32;;;;;;;;;;;333.70;2329.60;;;;;;5007272;28;19910;-75
2024/02/13 13:28:58;;;;;;;;;;;;;;;;;;5000253;28;19955;-75
2024/02/13 13:31:24;;;;;;;;;;;333.70;2329.60;;;;;;5009529;28;19917;-75
2024/02/13 13:33:53;;;;;;;;;;;333.50;2329.60;;;;;;4996340;28;19905;-75
2024/02/13 13:36:18;;;;;;;;;;;333.50;2329.60;;;;;;5005524;28;19913;-75
2024/02/13 13:38:45;;;;;;;;;;;333.40;2329.60;;;;;;5005531;28;19906;-75
2024/02/13 13:41:13;;;;;;;;;;;333.30;2329.60;;;;;;5004361;28;19936;-74